createdAt,value
2018-04-11T00:00:33.156Z,76.01
2018-04-11T00:03:02.247Z,75.94
2018-04-11T00:05:31.327Z,76.18
2018-04-11T00:07:59.646Z,76.34
2018-04-11T00:10:27.972Z,76.82
2018-04-11T00:12:56.296Z,77.29
2018-04-11T00:15:25.469Z,77.78
2018-04-11T00:17:53.804Z,78.19
2018-04-11T00:20:22.129Z,78.33
2018-04-11T00:22:50.444Z,78.74
2018-04-11T00:25:19.543Z,79.35
2018-04-11T00:27:48.626Z,80.14
2018-04-11T00:30:17.135Z,80.41
2018-04-11T00:32:46.218Z,80.44
2018-04-11T00:35:15.283Z,80.63
2018-04-11T00:37:43.582Z,80.72
2018-04-11T00:40:11.902Z,81.05
2018-04-11T00:42:41.045Z,81.45
2018-04-11T00:45:09.366Z,81.99
2018-04-11T00:47:38.444Z,82.30
2018-04-11T00:50:06.759Z,82.41
2018-04-11T00:52:35.061Z,82.75
2018-04-11T00:55:04.048Z,82.60
2018-04-11T00:57:32.394Z,82.70
2018-04-11T01:00:01.487Z,82.61
2018-04-11T01:02:30.569Z,82.62
2018-04-11T01:04:58.886Z,82.42
2018-04-11T01:07:27.254Z,82.89
2018-04-11T01:09:56.909Z,82.97
2018-04-11T01:12:25.229Z,83.51
2018-04-11T01:14:53.538Z,83.72
2018-04-11T01:17:22.617Z,83.66
2018-04-11T01:19:50.957Z,83.57
2018-04-11T01:22:19.278Z,83.20
2018-04-11T01:24:47.595Z,83.11
2018-04-11T01:27:15.913Z,83.27
2018-04-11T01:29:44.365Z,83.23
2018-04-11T01:32:12.678Z,83.46
2018-04-11T01:34:41.027Z,83.69
2018-04-11T01:37:09.354Z,84.39
2018-04-11T01:39:37.661Z,84.27
2018-04-11T01:42:06.760Z,84.11
2018-04-11T01:44:35.836Z,84.25
2018-04-11T01:47:04.150Z,84.52
2018-04-11T01:49:33.228Z,84.61
2018-04-11T01:52:02.337Z,84.70
2018-04-11T01:54:31.431Z,84.68
2018-04-11T01:57:00.509Z,84.59
2018-04-11T01:59:28.849Z,84.53
2018-04-11T02:01:57.179Z,84.41
2018-04-11T02:04:25.500Z,84.32
2018-04-11T02:06:53.819Z,84.47
2018-04-11T02:09:22.124Z,84.62
2018-04-11T02:11:50.444Z,84.56
2018-04-11T02:14:18.762Z,84.72
2018-04-11T02:16:47.106Z,84.84
2018-04-11T02:19:15.453Z,84.86
2018-04-11T02:21:43.942Z,84.83
2018-04-11T02:24:12.339Z,84.99
2018-04-11T02:26:41.425Z,85.04
2018-04-11T02:29:09.735Z,85.09
2018-04-11T02:31:38.067Z,85.25
2018-04-11T02:34:06.380Z,85.39
2018-04-11T02:36:34.718Z,85.40
2018-04-11T02:39:03.084Z,85.52
2018-04-11T02:41:31.400Z,85.54
2018-04-11T02:43:59.694Z,85.53
2018-04-11T02:46:27.993Z,85.46
2018-04-11T02:48:57.077Z,85.33
2018-04-11T02:51:26.207Z,85.27
2018-04-11T02:53:54.529Z,85.24
2018-04-11T02:56:22.839Z,85.35
2018-04-11T02:58:51.941Z,85.41
2018-04-11T03:01:21.037Z,85.42
2018-04-11T03:03:50.119Z,85.30
2018-04-11T03:06:18.454Z,85.22
2018-04-11T03:08:46.819Z,85.24
2018-04-11T03:11:15.113Z,85.38
2018-04-11T03:13:43.420Z,85.54
2018-04-11T03:16:11.775Z,85.62
2018-04-11T03:18:40.119Z,85.58
2018-04-11T03:21:09.193Z,85.68
2018-04-11T03:23:37.498Z,85.61
2018-04-11T03:26:05.801Z,85.58
2018-04-11T03:28:34.112Z,85.79
2018-04-11T03:31:02.424Z,85.71
2018-04-11T03:33:30.738Z,85.76
2018-04-11T03:35:59.048Z,85.89
2018-04-11T03:38:27.350Z,85.99
2018-04-11T03:40:55.659Z,86.07
2018-04-11T03:43:24.828Z,86.08
2018-04-11T03:45:53.136Z,85.98
2018-04-11T03:48:21.489Z,86.06
2018-04-11T03:50:49.790Z,85.96
2018-04-11T03:53:18.102Z,85.99
2018-04-11T03:55:47.193Z,86.06
2018-04-11T03:58:16.320Z,86.33
2018-04-11T04:00:44.618Z,86.60
2018-04-11T04:03:12.927Z,86.53
2018-04-11T04:05:41.259Z,86.48
2018-04-11T04:08:09.571Z,86.71
2018-04-11T04:10:37.907Z,86.57
2018-04-11T04:13:06.992Z,86.36
2018-04-11T04:15:53.785Z,86.46
2018-04-11T04:18:39.651Z,86.33
2018-04-11T04:21:07.965Z,86.37
2018-04-11T04:23:37.064Z,86.54
2018-04-11T04:26:06.206Z,86.82
2018-04-11T04:28:34.559Z,86.97
2018-04-11T04:31:02.873Z,86.94
2018-04-11T04:33:31.205Z,86.85
2018-04-11T04:36:00.275Z,86.67
2018-04-11T04:38:28.631Z,86.59
2018-04-11T04:40:56.978Z,86.48
2018-04-11T04:43:25.290Z,86.48
2018-04-11T04:45:53.598Z,86.74
2018-04-11T04:48:21.906Z,86.87
2018-04-11T04:50:50.981Z,86.91
2018-04-11T04:53:19.308Z,86.80
2018-04-11T04:55:47.640Z,86.93
2018-04-11T04:58:15.952Z,87.14
2018-04-11T05:00:45.044Z,87.57
2018-04-11T05:03:14.124Z,87.93
2018-04-11T05:05:42.442Z,88.20
2018-04-11T05:08:10.766Z,88.17
2018-04-11T05:10:39.091Z,88.14
2018-04-11T05:13:08.173Z,87.88
2018-04-11T05:15:36.583Z,87.72
2018-04-11T05:18:04.898Z,87.37
2018-04-11T05:20:33.540Z,87.14
2018-04-11T05:23:02.616Z,86.78
2018-04-11T05:25:30.956Z,86.52
2018-04-11T05:27:59.291Z,86.16
2018-04-11T05:30:27.603Z,85.97
2018-04-11T05:32:56.041Z,85.51
2018-04-11T05:35:24.350Z,84.95
2018-04-11T05:37:53.500Z,84.65
2018-04-11T05:40:21.805Z,84.27
2018-04-11T05:42:50.128Z,83.73
2018-04-11T05:45:18.457Z,83.33
2018-04-11T05:47:46.794Z,82.94
2018-04-11T05:50:15.161Z,82.46
2018-04-11T05:52:43.511Z,82.05
2018-04-11T05:55:11.813Z,81.45
2018-04-11T05:57:40.883Z,81.02
2018-04-11T06:00:09.983Z,80.65
2018-04-11T06:02:39.165Z,80.42
2018-04-11T06:05:07.467Z,80.08
2018-04-11T06:07:35.808Z,79.79
2018-04-11T06:10:04.146Z,79.59
2018-04-11T06:12:33.237Z,79.25
2018-04-11T06:15:01.547Z,78.94
2018-04-11T06:17:30.635Z,78.87
2018-04-11T06:19:59.747Z,78.73
2018-04-11T06:22:28.094Z,78.29
2018-04-11T06:24:57.198Z,77.91
2018-04-11T06:27:25.542Z,77.09
2018-04-11T06:29:53.889Z,76.56
2018-04-11T06:32:22.214Z,76.33
2018-04-11T06:34:50.538Z,75.98
2018-04-11T06:37:19.614Z,75.43
2018-04-11T06:39:47.940Z,74.98
2018-04-11T06:42:16.263Z,74.71
2018-04-11T06:44:44.581Z,74.15
2018-04-11T06:47:13.658Z,73.48
2018-04-11T06:49:41.976Z,73.11
2018-04-11T06:52:10.305Z,72.65
2018-04-11T06:54:39.134Z,71.35
2018-04-11T06:57:08.221Z,71.22
2018-04-11T06:59:36.545Z,70.98
2018-04-11T07:02:04.841Z,70.63
2018-04-11T07:04:33.151Z,70.14
2018-04-11T07:07:01.449Z,69.75
2018-04-11T07:09:30.516Z,69.33
2018-04-11T07:11:58.823Z,68.84
2018-04-11T07:14:27.903Z,68.18
2018-04-11T07:16:56.201Z,67.58
2018-04-11T07:19:24.504Z,67.27
2018-04-11T07:21:52.821Z,66.75
2018-04-11T07:24:21.127Z,66.49
2018-04-11T07:26:49.434Z,65.86
2018-04-11T07:29:18.514Z,65.49
2018-04-11T07:31:46.829Z,65.13
2018-04-11T07:34:15.135Z,64.84
2018-04-11T07:36:43.441Z,64.43
2018-04-11T07:39:11.782Z,64.50
2018-04-11T07:41:40.089Z,63.67
2018-04-11T07:44:08.418Z,62.99
2018-04-11T07:46:36.753Z,62.53
2018-04-11T07:49:05.151Z,61.98
2018-04-11T07:51:33.481Z,61.15
2018-04-11T07:54:01.787Z,60.69
2018-04-11T07:56:30.091Z,60.42
2018-04-11T07:58:58.401Z,59.94
2018-04-11T08:01:27.483Z,59.41
2018-04-11T08:03:55.811Z,58.89
2018-04-11T08:06:24.126Z,57.99
2018-04-11T08:08:52.462Z,57.38
2018-04-11T08:11:20.781Z,57.11
2018-04-11T08:13:49.092Z,56.29
2018-04-11T08:16:17.412Z,56.60
2018-04-11T08:18:45.716Z,56.10
2018-04-11T08:21:14.024Z,55.81
2018-04-11T08:23:41.674Z,55.34
2018-04-11T08:26:09.982Z,54.33
2018-04-11T08:28:38.310Z,54.31
2018-04-11T08:31:06.628Z,54.02
2018-04-11T08:33:34.969Z,54.21
2018-04-11T08:36:03.281Z,54.11
2018-04-11T08:38:31.602Z,53.65
2018-04-11T08:41:00.704Z,53.02
2018-04-11T08:43:29.770Z,52.65
2018-04-11T08:45:58.074Z,52.11
2018-04-11T08:48:26.397Z,52.01
2018-04-11T08:50:54.698Z,51.25
2018-04-11T08:53:23.027Z,51.43
2018-04-11T08:55:52.149Z,50.20
2018-04-11T08:58:20.446Z,49.19
2018-04-11T09:00:48.758Z,48.35
2018-04-11T09:03:17.082Z,47.88
2018-04-11T09:05:45.392Z,47.47
2018-04-11T09:08:13.714Z,47.39
2018-04-11T09:10:42.038Z,47.21
2018-04-11T09:13:10.354Z,48.42
2018-04-11T09:15:39.447Z,48.85
2018-04-11T09:18:07.783Z,48.87
2018-04-11T09:20:36.188Z,48.78
2018-04-11T09:23:04.509Z,48.80
2018-04-11T09:25:32.815Z,49.17
2018-04-11T09:28:01.894Z,49.25
2018-04-11T09:30:30.201Z,49.43
2018-04-11T09:32:59.339Z,49.36
2018-04-11T09:35:28.400Z,49.60
2018-04-11T09:37:57.470Z,49.76
2018-04-11T09:40:25.792Z,49.96
2018-04-11T09:42:54.100Z,50.07
2018-04-11T09:45:22.430Z,50.06
2018-04-11T09:47:51.495Z,50.33
2018-04-11T09:50:19.844Z,50.37
2018-04-11T09:52:48.169Z,50.23
2018-04-11T09:55:16.489Z,50.30
2018-04-11T09:57:45.561Z,50.30
2018-04-11T10:00:13.876Z,50.06
2018-04-11T10:02:42.227Z,50.37
2018-04-11T10:05:10.575Z,50.54
2018-04-11T10:07:38.915Z,50.95
2018-04-11T10:10:07.220Z,50.55
2018-04-11T10:12:35.533Z,50.50
2018-04-11T10:15:03.850Z,50.46
2018-04-11T10:17:32.917Z,50.50
2018-04-11T10:20:01.233Z,50.33
2018-04-11T10:22:30.302Z,50.61
2018-04-11T10:24:58.611Z,49.81
2018-04-11T10:27:27.690Z,50.22
2018-04-11T10:29:56.006Z,50.14
2018-04-11T10:32:24.315Z,50.36
2018-04-11T10:34:52.625Z,50.30
2018-04-11T10:37:20.922Z,49.93
2018-04-11T10:39:49.251Z,49.58
2018-04-11T10:42:17.566Z,48.39
2018-04-11T10:44:45.868Z,46.87
2018-04-11T10:47:14.966Z,46.47
2018-04-11T10:49:44.040Z,46.47
2018-04-11T10:52:12.357Z,46.47
2018-04-11T10:54:41.469Z,46.75
2018-04-11T10:57:09.790Z,46.67
2018-04-11T10:59:38.095Z,45.74
2018-04-11T11:02:06.411Z,45.24
2018-04-11T11:04:34.746Z,44.89
2018-04-11T11:07:03.066Z,44.14
2018-04-11T11:09:32.162Z,43.45
2018-04-11T11:12:00.562Z,42.15
2018-04-11T11:14:28.865Z,40.69
2018-04-11T11:16:57.208Z,39.53
2018-04-11T11:19:26.290Z,37.66
2018-04-11T11:21:54.612Z,36.67
2018-04-11T11:24:22.932Z,34.78
2018-04-11T11:26:51.296Z,34.06
2018-04-11T11:29:19.639Z,33.47
2018-04-11T11:31:47.984Z,33.16
2018-04-11T11:34:16.329Z,33.28
2018-04-11T11:36:44.656Z,33.68
2018-04-11T11:39:12.974Z,33.55
2018-04-11T11:41:41.314Z,33.55
2018-04-11T11:44:09.658Z,32.75
2018-04-11T11:46:37.972Z,31.45
2018-04-11T11:49:06.302Z,30.49
2018-04-11T11:51:34.637Z,29.52
2018-04-11T11:54:03.002Z,28.74
2018-04-11T11:56:31.365Z,28.60
2018-04-11T11:58:59.686Z,27.80
2018-04-11T12:01:28.008Z,27.39
2018-04-11T12:03:56.328Z,27.59
2018-04-11T12:06:24.634Z,27.73
2018-04-11T12:08:53.159Z,27.20
2018-04-11T12:11:21.474Z,26.15
2018-04-11T12:13:49.788Z,25.65
2018-04-11T12:16:18.892Z,24.40
2018-04-11T12:18:47.993Z,23.86
2018-04-11T12:21:17.133Z,23.18
2018-04-11T12:23:45.454Z,23.89
2018-04-11T12:26:13.786Z,24.98
2018-04-11T12:28:42.109Z,25.35
2018-04-11T12:31:10.452Z,25.65
2018-04-11T12:33:38.788Z,25.12
2018-04-11T12:36:07.886Z,25.15
2018-04-11T12:38:36.235Z,25.61
2018-04-11T12:41:04.570Z,26.07
2018-04-11T12:43:33.669Z,26.42
2018-04-11T12:46:02.732Z,27.63
2018-04-11T12:48:31.072Z,27.14
2018-04-11T12:50:59.401Z,25.70
2018-04-11T12:53:27.720Z,24.10
2018-04-11T12:55:56.066Z,22.90
2018-04-11T12:58:24.408Z,22.09
2018-04-11T13:00:54.667Z,21.01
2018-04-11T13:03:23.002Z,20.45
2018-04-11T13:05:51.348Z,19.82
2018-04-11T13:08:19.660Z,19.22
2018-04-11T13:10:47.998Z,18.54
2018-04-11T13:13:16.332Z,17.99
2018-04-11T13:15:44.813Z,17.61
2018-04-11T13:18:14.857Z,17.81
2018-04-11T13:20:43.317Z,17.78
2018-04-11T13:23:13.304Z,17.57
2018-04-11T13:25:41.729Z,17.38
2018-04-11T13:28:10.132Z,17.50
2018-04-11T13:30:38.493Z,17.27
2018-04-11T13:33:06.843Z,17.00
2018-04-11T13:35:35.961Z,16.63
2018-04-11T13:38:05.034Z,16.32
2018-04-11T13:40:34.119Z,16.02
2018-04-11T13:43:02.435Z,16.03
2018-04-11T13:45:30.764Z,15.91
2018-04-11T13:47:59.101Z,15.95
2018-04-11T13:50:27.445Z,15.90
2018-04-11T13:52:55.776Z,15.64
2018-04-11T13:55:24.082Z,15.61
2018-04-11T13:57:52.421Z,15.45
2018-04-11T14:00:21.516Z,16.37
2018-04-11T14:02:50.601Z,16.82
2018-04-11T14:05:19.745Z,18.67
2018-04-11T14:07:48.071Z,20.44
2018-04-11T14:10:16.394Z,21.48
2018-04-11T14:12:44.708Z,21.81
2018-04-11T14:15:13.050Z,21.61
2018-04-11T14:17:41.398Z,21.18
2018-04-11T14:20:09.724Z,20.59
2018-04-11T14:22:38.073Z,20.01
2018-04-11T14:25:06.499Z,20.05
2018-04-11T14:27:34.882Z,21.52
2018-04-11T14:30:03.303Z,22.19
2018-04-11T14:32:31.697Z,23.41
2018-04-11T14:35:00.090Z,25.06
2018-04-11T14:37:29.228Z,26.92
2018-04-11T14:39:57.551Z,28.57
2018-04-11T14:42:25.874Z,29.98
2018-04-11T14:44:54.189Z,31.44
2018-04-11T14:47:22.555Z,31.53
2018-04-11T14:49:51.884Z,32.12
2018-04-11T14:52:20.278Z,32.56
2018-04-11T14:54:49.379Z,33.09
2018-04-11T14:57:17.689Z,32.25
2018-04-11T14:59:46.785Z,29.99
2018-04-11T15:02:15.862Z,27.58
2018-04-11T15:04:44.190Z,26.57
2018-04-11T15:07:12.497Z,26.31
2018-04-11T15:09:40.813Z,25.44
2018-04-11T15:12:09.117Z,24.98
2018-04-11T15:14:38.193Z,25.72
2018-04-11T15:17:06.497Z,26.07
2018-04-11T15:19:35.732Z,25.22
2018-04-11T15:22:04.063Z,25.90
2018-04-11T15:24:33.590Z,27.36
2018-04-11T15:27:02.670Z,28.80
2018-04-11T15:29:30.991Z,29.77
2018-04-11T15:31:59.314Z,30.50
2018-04-11T15:34:27.641Z,31.45
2018-04-11T15:36:56.717Z,31.24
2018-04-11T15:39:25.360Z,31.08
2018-04-11T15:41:53.701Z,32.49
2018-04-11T15:44:22.780Z,34.39
2018-04-11T15:46:51.125Z,36.31
2018-04-11T15:49:20.201Z,38.02
2018-04-11T15:51:48.515Z,38.80
2018-04-11T15:54:16.821Z,39.21
2018-04-11T15:56:45.154Z,38.96
2018-04-11T15:59:13.480Z,39.16
2018-04-11T16:01:41.817Z,39.89
2018-04-11T16:04:10.145Z,40.87
2018-04-11T16:06:38.441Z,41.74
2018-04-11T16:09:06.772Z,42.68
2018-04-11T16:11:35.093Z,43.46
2018-04-11T16:14:03.408Z,44.22
2018-04-11T16:16:31.713Z,45.36
2018-04-11T16:19:00.026Z,46.10
2018-04-11T16:21:28.832Z,46.86
2018-04-11T16:23:57.155Z,47.56
2018-04-11T16:26:25.471Z,48.01
2018-04-11T16:28:54.563Z,48.27
2018-04-11T16:31:22.885Z,48.20
2018-04-11T16:33:52.025Z,48.40
2018-04-11T16:36:20.335Z,48.42
2018-04-11T16:38:48.637Z,48.74
2018-04-11T16:41:16.953Z,49.15
2018-04-11T16:43:45.273Z,49.41
2018-04-11T16:46:13.831Z,49.79
2018-04-11T16:48:42.179Z,50.26
2018-04-11T16:51:11.291Z,50.26
2018-04-11T16:53:39.639Z,50.39
2018-04-11T16:56:07.939Z,50.54
2018-04-11T16:58:36.251Z,50.58
2018-04-11T17:01:04.573Z,50.93
2018-04-11T17:03:32.907Z,51.20
2018-04-11T17:06:01.210Z,51.44
2018-04-11T17:08:29.547Z,51.77
2018-04-11T17:10:58.714Z,52.32
2018-04-11T17:13:27.044Z,52.79
2018-04-11T17:15:56.132Z,53.22
2018-04-11T17:18:25.240Z,53.80
2018-04-11T17:21:12.789Z,54.26
2018-04-11T17:23:59.678Z,54.98
2018-04-11T17:26:45.997Z,55.54
2018-04-11T17:29:32.016Z,55.97
2018-04-11T17:32:01.097Z,56.42
2018-04-11T17:34:29.445Z,56.81
2018-04-11T17:36:57.755Z,57.28
2018-04-11T17:39:26.824Z,57.75
2018-04-11T17:41:55.126Z,58.04
2018-04-11T17:44:23.442Z,58.25
2018-04-11T17:46:51.757Z,58.40
2018-04-11T17:49:20.064Z,58.75
2018-04-11T17:51:48.408Z,58.96
2018-04-11T17:54:16.724Z,59.09
2018-04-11T17:56:45.055Z,59.36
2018-04-11T17:59:14.160Z,59.66
2018-04-11T18:01:43.237Z,59.70
2018-04-11T18:04:11.546Z,59.77
2018-04-11T18:06:40.654Z,59.79
2018-04-11T18:09:09.027Z,59.85
2018-04-11T18:11:37.345Z,59.95
2018-04-11T18:14:05.677Z,59.98
2018-04-11T18:16:34.757Z,60.14
2018-04-11T18:19:03.131Z,60.24
2018-04-11T18:21:31.443Z,60.36
2018-04-11T18:24:00.576Z,60.70
2018-04-11T18:26:28.854Z,60.98
2018-04-11T18:28:57.161Z,61.14
2018-04-11T18:31:25.488Z,61.19
2018-04-11T18:33:54.549Z,61.42
2018-04-11T18:36:22.858Z,61.60
2018-04-11T18:38:51.192Z,61.81
2018-04-11T18:41:19.511Z,62.06
2018-04-11T18:43:47.839Z,62.30
2018-04-11T18:46:17.149Z,62.57
2018-04-11T18:48:45.535Z,62.92
2018-04-11T18:51:13.861Z,63.02
2018-04-11T18:53:42.191Z,63.23
2018-04-11T18:56:10.573Z,63.36
2018-04-11T18:58:38.929Z,63.50
2018-04-11T19:01:08.832Z,63.64
2018-04-11T19:03:37.956Z,63.95
2018-04-11T19:06:06.353Z,64.42
2018-04-11T19:08:35.101Z,64.85
2018-04-11T19:11:04.403Z,65.14
2018-04-11T19:13:32.737Z,65.53
2018-04-11T19:16:01.114Z,65.85
2018-04-11T19:18:30.006Z,66.14
2018-04-11T19:20:58.332Z,66.44
2018-04-11T19:23:26.638Z,66.57
2018-04-11T19:25:55.743Z,66.79
2018-04-11T19:28:24.841Z,66.80
2018-04-11T19:30:53.929Z,66.85
2018-04-11T19:33:22.282Z,66.97
2018-04-11T19:35:50.733Z,67.12
2018-04-11T19:38:19.051Z,67.32
2018-04-11T19:40:47.359Z,67.54
2018-04-11T19:43:15.661Z,67.89
2018-04-11T19:45:44.754Z,68.26
2018-04-11T19:48:13.083Z,68.52
2018-04-11T19:50:41.399Z,68.58
2018-04-11T19:53:10.490Z,68.84
2018-04-11T19:55:38.999Z,68.85
2018-04-11T19:58:07.329Z,68.92
2018-04-11T20:00:35.791Z,69.08
2018-04-11T20:03:04.199Z,69.21
2018-04-11T20:05:32.631Z,69.19
2018-04-11T20:08:02.083Z,69.20
2018-04-11T20:10:30.415Z,69.19
2018-04-11T20:12:59.650Z,69.21
2018-04-11T20:15:28.922Z,69.28
2018-04-11T20:17:58.331Z,69.54
2018-04-11T20:20:27.518Z,69.85
2018-04-11T20:22:56.647Z,70.14
2018-04-11T20:25:25.009Z,70.62
2018-04-11T20:27:54.068Z,70.92
2018-04-11T20:30:22.587Z,71.15
2018-04-11T20:32:50.988Z,71.10
2018-04-11T20:35:19.301Z,71.02
2018-04-11T20:37:47.607Z,70.83
2018-04-11T20:40:15.942Z,70.66
2018-04-11T20:42:44.310Z,70.59
2018-04-11T20:45:12.588Z,70.44
2018-04-11T20:47:41.693Z,70.32
2018-04-11T20:50:18.620Z,70.29
2018-04-11T20:52:46.938Z,70.31
2018-04-11T20:55:16.024Z,70.30
2018-04-11T20:57:44.346Z,70.41
2018-04-11T21:00:12.654Z,70.47
2018-04-11T21:02:41.858Z,70.79
2018-04-11T21:05:10.182Z,70.92
2018-04-11T21:07:39.314Z,70.78
2018-04-11T21:10:07.621Z,70.76
2018-04-11T21:12:35.926Z,70.60
2018-04-11T21:15:04.256Z,70.46
2018-04-11T21:17:32.582Z,70.31
2018-04-11T21:20:00.912Z,70.31
2018-04-11T21:22:29.212Z,70.32
2018-04-11T21:24:57.565Z,70.29
2018-04-11T21:27:25.885Z,70.31
2018-04-11T21:29:54.234Z,70.34
2018-04-11T21:32:22.607Z,70.45
2018-04-11T21:34:50.958Z,70.53
2018-04-11T21:37:19.590Z,70.60
2018-04-11T21:39:47.905Z,70.54
2018-04-11T21:42:16.229Z,70.47
2018-04-11T21:44:45.311Z,70.40
2018-04-11T21:47:13.627Z,70.44
2018-04-11T21:49:41.956Z,70.50
2018-04-11T21:52:10.284Z,70.50
2018-04-11T21:54:38.606Z,70.42
2018-04-11T21:57:06.923Z,70.27
2018-04-11T21:59:35.276Z,70.21
2018-04-11T22:02:03.678Z,70.01
2018-04-11T22:04:32.056Z,69.92
2018-04-11T22:07:00.380Z,69.80
2018-04-11T22:09:28.691Z,69.74
2018-04-11T22:11:56.997Z,69.77
2018-04-11T22:14:25.311Z,69.81
2018-04-11T22:16:53.657Z,69.85
2018-04-11T22:19:21.978Z,69.97
2018-04-11T22:21:50.314Z,70.11
2018-04-11T22:24:18.636Z,70.19
2018-04-11T22:26:47.726Z,70.30
2018-04-11T22:29:16.792Z,70.35
2018-04-11T22:31:46.036Z,70.44
2018-04-11T22:34:16.555Z,70.69
2018-04-11T22:36:45.696Z,70.95
2018-04-11T22:39:14.070Z,71.22
2018-04-11T22:41:42.404Z,71.50
2018-04-11T22:44:12.248Z,71.84
2018-04-11T22:46:41.406Z,72.17
2018-04-11T22:49:09.703Z,72.56
2018-04-11T22:51:38.016Z,72.78
2018-04-11T22:54:06.372Z,72.95
2018-04-11T22:56:34.693Z,73.06
2018-04-11T22:59:03.004Z,73.21
2018-04-11T23:01:31.349Z,73.37
2018-04-11T23:03:59.671Z,73.60
2018-04-11T23:06:27.996Z,73.82
2018-04-11T23:08:57.076Z,74.17
2018-04-11T23:11:25.385Z,74.46
2018-04-11T23:13:54.338Z,74.77
2018-04-11T23:16:22.649Z,75.12
2018-04-11T23:18:51.878Z,75.35
2018-04-11T23:21:20.197Z,75.56
2018-04-11T23:23:48.506Z,75.79
2018-04-11T23:26:17.572Z,76.07
2018-04-11T23:28:45.882Z,76.27
2018-04-11T23:31:14.955Z,76.62
2018-04-11T23:33:43.264Z,76.83
2018-04-11T23:36:12.356Z,77.23
2018-04-11T23:38:40.661Z,77.52
2018-04-11T23:41:08.982Z,77.83
2018-04-11T23:43:37.304Z,78.02
2018-04-11T23:46:06.470Z,78.19
2018-04-11T23:48:34.786Z,78.34
2018-04-11T23:51:03.883Z,78.53
2018-04-11T23:53:32.963Z,78.81
2018-04-11T23:56:01.276Z,78.98
2018-04-11T23:58:31.095Z,79.00
